createdAt,value
2017-12-03T00:00:46.199Z,-6.58
2017-12-03T00:01:46.202Z,-6.58
2017-12-03T00:02:46.202Z,-6.61
2017-12-03T00:03:46.204Z,-6.46
2017-12-03T00:04:46.209Z,-6.47
2017-12-03T00:05:46.208Z,-6.62
2017-12-03T00:06:46.210Z,-6.62
2017-12-03T00:07:46.208Z,-6.71
2017-12-03T00:08:46.211Z,-6.62
2017-12-03T00:09:46.211Z,-6.66
2017-12-03T00:10:46.216Z,-6.69
2017-12-03T00:11:46.214Z,-6.76
2017-12-03T00:12:46.216Z,-6.73
2017-12-03T00:13:46.219Z,-6.77
2017-12-03T00:14:46.219Z,-6.83
2017-12-03T00:15:46.222Z,-6.94
2017-12-03T00:16:46.222Z,-6.83
2017-12-03T00:17:46.224Z,-6.87
2017-12-03T00:18:46.224Z,-6.89
2017-12-03T00:19:46.226Z,-6.83
2017-12-03T00:20:46.228Z,-6.86
2017-12-03T00:21:46.230Z,-6.83
2017-12-03T00:22:46.230Z,-6.83
2017-12-03T00:23:46.237Z,-6.84
2017-12-03T00:24:46.232Z,-6.92
2017-12-03T00:25:46.233Z,-6.86
2017-12-03T00:26:46.238Z,-6.91
2017-12-03T00:27:46.238Z,-6.95
2017-12-03T00:28:46.240Z,-7.00
2017-12-03T00:29:46.240Z,-7.07
2017-12-03T00:30:46.239Z,-7.00
2017-12-03T00:31:46.241Z,-7.04
2017-12-03T00:32:46.242Z,-7.01
2017-12-03T00:33:46.244Z,-7.11
2017-12-03T00:34:46.245Z,-7.05
2017-12-03T00:35:46.246Z,-7.02
2017-12-03T00:36:46.306Z,-7.05
2017-12-03T00:37:46.250Z,-7.13
2017-12-03T00:38:46.249Z,-7.22
2017-12-03T00:39:46.251Z,-7.19
2017-12-03T00:40:46.253Z,-7.25
2017-12-03T00:41:46.255Z,-7.43
2017-12-03T00:42:46.255Z,-7.41
2017-12-03T00:43:46.255Z,-7.48
2017-12-03T00:44:46.257Z,-7.46
2017-12-03T00:45:46.258Z,-7.58
2017-12-03T00:46:46.259Z,-7.51
2017-12-03T00:47:46.263Z,-7.66
2017-12-03T00:48:46.260Z,-7.61
2017-12-03T00:49:46.263Z,-7.60
2017-12-03T00:50:46.263Z,-7.66
2017-12-03T00:51:46.265Z,-7.54
2017-12-03T00:52:46.265Z,-7.51
2017-12-03T00:53:46.266Z,-7.50
2017-12-03T00:54:46.267Z,-7.44
2017-12-03T00:55:46.267Z,-7.41
2017-12-03T00:56:46.270Z,-7.40
2017-12-03T00:57:46.269Z,-7.37
2017-12-03T00:58:46.269Z,-7.36
2017-12-03T00:59:46.270Z,-7.43
2017-12-03T01:00:46.274Z,-7.41
2017-12-03T01:01:46.272Z,-7.41
2017-12-03T01:02:46.271Z,-7.41
2017-12-03T01:03:46.271Z,-7.46
2017-12-03T01:04:46.273Z,-7.50
2017-12-03T01:05:46.276Z,-7.43
2017-12-03T01:06:46.274Z,-7.43
2017-12-03T01:07:46.276Z,-7.44
2017-12-03T01:08:46.276Z,-7.41
2017-12-03T01:09:46.278Z,-7.48
2017-12-03T01:10:46.277Z,-7.44
2017-12-03T01:11:46.279Z,-7.50
2017-12-03T01:12:46.280Z,-7.58
2017-12-03T01:13:46.328Z,-7.58
2017-12-03T01:14:46.280Z,-7.58
2017-12-03T01:15:46.284Z,-7.57
2017-12-03T01:16:46.282Z,-7.51
2017-12-03T01:17:46.284Z,-7.55
2017-12-03T01:18:46.283Z,-7.51
2017-12-03T01:19:46.284Z,-7.57
2017-12-03T01:20:46.286Z,-7.51
2017-12-03T01:21:46.287Z,-7.46
2017-12-03T01:22:46.290Z,-7.40
2017-12-03T01:23:46.290Z,-7.48
2017-12-03T01:24:46.290Z,-7.36
2017-12-03T01:25:46.289Z,-7.36
2017-12-03T01:26:46.289Z,-7.48
2017-12-03T01:27:46.290Z,-7.58
2017-12-03T01:28:46.291Z,-7.52
2017-12-03T01:29:46.294Z,-7.54
2017-12-03T01:30:46.292Z,-7.52
2017-12-03T01:31:46.292Z,-7.58
2017-12-03T01:32:46.295Z,-7.55
2017-12-03T01:33:46.295Z,-7.58
2017-12-03T01:34:46.295Z,-7.64
2017-12-03T01:35:46.297Z,-7.66
2017-12-03T01:36:46.297Z,-7.66
2017-12-03T01:37:46.299Z,-7.69
2017-12-03T01:38:46.298Z,-7.62
2017-12-03T01:39:46.299Z,-7.57
2017-12-03T01:40:46.299Z,-7.57
2017-12-03T01:41:46.299Z,-7.57
2017-12-03T01:42:46.300Z,-7.57
2017-12-03T01:43:46.300Z,-7.54
2017-12-03T01:44:46.304Z,-7.44
2017-12-03T01:45:46.309Z,-7.41
2017-12-03T01:46:46.300Z,-7.46
2017-12-03T01:47:46.301Z,-7.44
2017-12-03T01:48:46.305Z,-7.50
2017-12-03T01:49:46.303Z,-7.52
2017-12-03T01:50:46.303Z,-7.43
2017-12-03T01:51:46.306Z,-7.48
2017-12-03T01:52:46.305Z,-7.43
2017-12-03T01:53:46.305Z,-7.43
2017-12-03T01:54:46.304Z,-7.48
2017-12-03T01:55:46.306Z,-7.44
2017-12-03T01:56:46.307Z,-7.39
2017-12-03T01:57:46.308Z,-7.36
2017-12-03T01:58:46.308Z,-7.36
2017-12-03T01:59:46.309Z,-7.40
2017-12-03T02:00:46.308Z,-7.39
2017-12-03T02:01:46.313Z,-7.37
2017-12-03T02:02:46.309Z,-7.37
2017-12-03T02:03:46.317Z,-7.43
2017-12-03T02:04:46.311Z,-7.37
2017-12-03T02:05:46.311Z,-7.33
2017-12-03T02:06:46.310Z,-7.34
2017-12-03T02:07:46.309Z,-7.39
2017-12-03T02:08:46.312Z,-7.41
2017-12-03T02:09:46.311Z,-7.43
2017-12-03T02:10:46.311Z,-7.41
2017-12-03T02:11:46.313Z,-7.52
2017-12-03T02:12:46.313Z,-7.50
2017-12-03T02:13:46.315Z,-7.41
2017-12-03T02:14:46.313Z,-7.39
2017-12-03T02:15:46.316Z,-7.37
2017-12-03T02:16:46.315Z,-7.33
2017-12-03T02:17:46.317Z,-7.41
2017-12-03T02:18:46.316Z,-7.34
2017-12-03T02:19:46.319Z,-7.34
2017-12-03T02:20:46.318Z,-7.39
2017-12-03T02:21:46.319Z,-7.36
2017-12-03T02:22:46.316Z,-7.34
2017-12-03T02:23:46.317Z,-7.40
2017-12-03T02:24:46.318Z,-7.40
2017-12-03T02:25:46.321Z,-7.48
2017-12-03T02:26:46.318Z,-7.43
2017-12-03T02:27:46.319Z,-7.48
2017-12-03T02:28:46.321Z,-7.58
2017-12-03T02:29:46.321Z,-7.55
2017-12-03T02:30:46.322Z,-7.58
2017-12-03T02:31:46.323Z,-7.51
2017-12-03T02:32:46.323Z,-7.54
2017-12-03T02:33:46.326Z,-7.46
2017-12-03T02:34:46.326Z,-7.48
2017-12-03T02:35:46.325Z,-7.50
2017-12-03T02:36:46.325Z,-7.58
2017-12-03T02:37:46.327Z,-7.51
2017-12-03T02:38:46.326Z,-7.52
2017-12-03T02:39:46.328Z,-7.61
2017-12-03T02:40:46.330Z,-7.61
2017-12-03T02:41:46.328Z,-7.54
2017-12-03T02:42:46.329Z,-7.55
2017-12-03T02:43:46.722Z,-7.66
2017-12-03T02:44:46.330Z,-7.51
2017-12-03T02:45:46.331Z,-7.60
2017-12-03T02:46:46.332Z,-7.60
2017-12-03T02:47:46.333Z,-7.58
2017-12-03T02:48:46.334Z,-7.54
2017-12-03T02:49:46.332Z,-7.57
2017-12-03T02:50:46.336Z,-7.57
2017-12-03T02:51:46.336Z,-7.58
2017-12-03T02:52:46.337Z,-7.54
2017-12-03T02:53:46.335Z,-7.50
2017-12-03T02:54:46.337Z,-7.51
2017-12-03T02:55:46.339Z,-7.54
2017-12-03T02:56:46.339Z,-7.50
2017-12-03T02:57:46.338Z,-7.43
2017-12-03T02:58:46.338Z,-7.44
2017-12-03T02:59:46.349Z,-7.39
2017-12-03T03:00:46.339Z,-7.41
2017-12-03T03:01:46.343Z,-7.44
2017-12-03T03:02:46.342Z,-7.44
2017-12-03T03:03:46.344Z,-7.48
2017-12-03T03:04:46.347Z,-7.54
2017-12-03T03:05:46.351Z,-7.61
2017-12-03T03:06:46.348Z,-7.69
2017-12-03T03:07:46.347Z,-7.68
2017-12-03T03:08:46.348Z,-7.76
2017-12-03T03:09:46.348Z,-7.72
2017-12-03T03:10:46.347Z,-7.80
2017-12-03T03:11:46.348Z,-7.89
2017-12-03T03:12:46.356Z,-7.83
2017-12-03T03:13:46.351Z,-7.90
2017-12-03T03:14:46.351Z,-7.97
2017-12-03T03:15:46.351Z,-7.93
2017-12-03T03:16:46.352Z,-7.91
2017-12-03T03:17:46.353Z,-7.94
2017-12-03T03:18:46.354Z,-7.96
2017-12-03T03:19:46.354Z,-7.99
2017-12-03T03:20:46.355Z,-7.93
2017-12-03T03:21:46.356Z,-7.94
2017-12-03T03:22:46.357Z,-7.99
2017-12-03T03:23:46.355Z,-8.05
2017-12-03T03:24:46.356Z,-7.97
2017-12-03T03:25:46.359Z,-8.02
2017-12-03T03:26:46.359Z,-8.08
2017-12-03T03:27:46.358Z,-8.06
2017-12-03T03:28:46.359Z,-8.09
2017-12-03T03:29:46.360Z,-7.97
2017-12-03T03:30:46.361Z,-7.93
2017-12-03T03:31:46.361Z,-7.94
2017-12-03T03:32:46.373Z,-7.94
2017-12-03T03:33:46.363Z,-7.97
2017-12-03T03:34:46.363Z,-7.96
2017-12-03T03:35:46.364Z,-7.94
2017-12-03T03:36:46.370Z,-7.96
2017-12-03T03:37:46.364Z,-7.91
2017-12-03T03:38:46.365Z,-7.99
2017-12-03T03:39:46.365Z,-7.99
2017-12-03T03:40:46.367Z,-7.94
2017-12-03T03:41:46.367Z,-7.99
2017-12-03T03:42:46.368Z,-7.96
2017-12-03T03:43:46.370Z,-7.96
2017-12-03T03:44:46.369Z,-8.05
2017-12-03T03:45:46.404Z,-7.93
2017-12-03T03:46:46.368Z,-8.08
2017-12-03T03:47:46.369Z,-8.06
2017-12-03T03:48:46.368Z,-8.06
2017-12-03T03:49:46.370Z,-8.06
2017-12-03T03:50:46.370Z,-8.05
2017-12-03T03:51:46.372Z,-8.12
2017-12-03T03:52:46.372Z,-8.09
2017-12-03T03:53:46.373Z,-8.12
2017-12-03T03:54:46.371Z,-8.09
2017-12-03T03:55:46.374Z,-8.13
2017-12-03T03:56:46.376Z,-8.13
2017-12-03T03:57:46.374Z,-8.23
2017-12-03T03:58:46.374Z,-8.15
2017-12-03T03:59:46.374Z,-8.15
2017-12-03T04:00:46.375Z,-8.11
2017-12-03T04:01:46.373Z,-8.12
2017-12-03T04:02:46.374Z,-8.13
2017-12-03T04:03:46.379Z,-8.13
2017-12-03T04:04:46.374Z,-8.19
2017-12-03T04:05:46.375Z,-8.18
2017-12-03T04:06:46.373Z,-8.21
2017-12-03T04:07:46.372Z,-8.13
2017-12-03T04:08:46.374Z,-8.18
2017-12-03T04:09:46.373Z,-8.15
2017-12-03T04:10:46.375Z,-8.15
2017-12-03T04:11:46.372Z,-8.26
2017-12-03T04:12:46.375Z,-8.27
2017-12-03T04:13:46.374Z,-8.13
2017-12-03T04:14:46.376Z,-8.24
2017-12-03T04:15:46.375Z,-8.16
2017-12-03T04:16:46.375Z,-8.24
2017-12-03T04:17:46.374Z,-8.23
2017-12-03T04:18:46.374Z,-8.26
2017-12-03T04:19:46.374Z,-8.36
2017-12-03T04:20:46.373Z,-8.40
2017-12-03T04:21:46.375Z,-8.37
2017-12-03T04:22:46.374Z,-8.44
2017-12-03T04:23:46.373Z,-8.33
2017-12-03T04:24:46.374Z,-8.45
2017-12-03T04:25:46.374Z,-8.50
2017-12-03T04:26:46.372Z,-8.47
2017-12-03T04:27:46.377Z,-8.45
2017-12-03T04:28:46.375Z,-8.66
2017-12-03T04:29:46.378Z,-8.60
2017-12-03T04:30:46.375Z,-8.60
2017-12-03T04:31:46.375Z,-8.54
2017-12-03T04:32:46.372Z,-8.60
2017-12-03T04:33:46.374Z,-8.70
2017-12-03T04:34:46.373Z,-8.66
2017-12-03T04:35:46.374Z,-8.70
2017-12-03T04:36:46.373Z,-8.76
2017-12-03T04:37:46.374Z,-8.83
2017-12-03T04:38:46.373Z,-8.76
2017-12-03T04:39:46.374Z,-8.83
2017-12-03T04:40:46.374Z,-8.86
2017-12-03T04:41:46.374Z,-8.80
2017-12-03T04:42:46.373Z,-8.78
2017-12-03T04:43:46.373Z,-8.86
2017-12-03T04:44:46.374Z,-8.90
2017-12-03T04:45:46.373Z,-8.86
2017-12-03T04:46:46.373Z,-8.80
2017-12-03T04:47:46.421Z,-8.98
2017-12-03T04:48:46.373Z,-8.93
2017-12-03T04:49:46.370Z,-8.86
2017-12-03T04:50:46.373Z,-8.83
2017-12-03T04:51:46.372Z,-8.89
2017-12-03T04:52:46.372Z,-8.96
2017-12-03T04:53:46.377Z,-8.96
2017-12-03T04:54:46.371Z,-9.02
2017-12-03T04:55:46.370Z,-9.04
2017-12-03T04:56:46.372Z,-9.10
2017-12-03T04:57:46.372Z,-9.07
2017-12-03T04:58:46.371Z,-9.07
2017-12-03T04:59:46.372Z,-9.07
2017-12-03T05:00:46.372Z,-9.07
2017-12-03T05:01:46.371Z,-9.07
2017-12-03T05:02:46.369Z,-9.08
2017-12-03T05:03:46.374Z,-9.05
2017-12-03T05:04:46.370Z,-9.08
2017-12-03T05:05:46.375Z,-9.15
2017-12-03T05:06:46.368Z,-9.18
2017-12-03T05:07:46.369Z,-9.08
2017-12-03T05:08:46.368Z,-9.15
2017-12-03T05:09:46.368Z,-9.18
2017-12-03T05:10:46.365Z,-9.18
2017-12-03T05:11:46.366Z,-9.07
2017-12-03T05:12:46.368Z,-9.20
2017-12-03T05:13:46.364Z,-9.14
2017-12-03T05:14:46.368Z,-9.18
2017-12-03T05:15:46.368Z,-9.07
2017-12-03T05:16:46.363Z,-9.04
2017-12-03T05:17:46.364Z,-9.05
2017-12-03T05:18:46.366Z,-9.07
2017-12-03T05:19:46.362Z,-9.07
2017-12-03T05:20:46.363Z,-9.12
2017-12-03T05:21:46.362Z,-9.12
2017-12-03T05:22:46.360Z,-9.11
2017-12-03T05:23:46.360Z,-9.14
2017-12-03T05:24:46.359Z,-9.08
2017-12-03T05:25:46.359Z,-9.15
2017-12-03T05:26:46.358Z,-9.18
2017-12-03T05:27:46.363Z,-9.15
2017-12-03T05:28:46.359Z,-9.19
2017-12-03T05:29:46.358Z,-9.20
2017-12-03T05:30:46.355Z,-9.11
2017-12-03T05:31:46.356Z,-9.18
2017-12-03T05:32:46.355Z,-9.28
2017-12-03T05:33:46.355Z,-9.25
2017-12-03T05:34:46.355Z,-9.28
2017-12-03T05:35:46.353Z,-9.28
2017-12-03T05:36:46.351Z,-9.29
2017-12-03T05:37:46.352Z,-9.26
2017-12-03T05:38:46.352Z,-9.26
2017-12-03T05:39:46.351Z,-9.30
2017-12-03T05:40:46.352Z,-9.30
2017-12-03T05:41:46.353Z,-9.28
2017-12-03T05:42:46.349Z,-9.32
2017-12-03T05:43:46.348Z,-9.26
2017-12-03T05:44:46.349Z,-9.36
2017-12-03T05:45:46.349Z,-9.32
2017-12-03T05:46:46.345Z,-9.30
2017-12-03T05:47:46.347Z,-9.32
2017-12-03T05:48:46.346Z,-9.33
2017-12-03T05:49:46.346Z,-9.37
2017-12-03T05:50:46.344Z,-9.41
2017-12-03T05:51:46.346Z,-9.45
2017-12-03T05:52:46.348Z,-9.51
2017-12-03T05:53:46.345Z,-9.56
2017-12-03T05:54:46.343Z,-9.52
2017-12-03T05:55:46.342Z,-9.58
2017-12-03T05:56:46.341Z,-9.51
2017-12-03T05:57:46.342Z,-9.54
2017-12-03T05:58:46.340Z,-9.54
2017-12-03T05:59:46.339Z,-9.54
2017-12-03T06:00:46.339Z,-9.52
2017-12-03T06:01:46.338Z,-9.51
2017-12-03T06:02:46.338Z,-9.58
2017-12-03T06:03:46.336Z,-9.61
2017-12-03T06:04:46.339Z,-9.56
2017-12-03T06:05:46.337Z,-9.65
2017-12-03T06:06:46.337Z,-9.66
2017-12-03T06:07:46.333Z,-9.69
2017-12-03T06:08:46.333Z,-9.69
2017-12-03T06:09:46.332Z,-9.81
2017-12-03T06:10:46.332Z,-9.81
2017-12-03T06:11:46.330Z,-9.89
2017-12-03T06:12:46.329Z,-9.87
2017-12-03T06:13:46.329Z,-9.97
2017-12-03T06:14:46.328Z,-10.05
2017-12-03T06:15:46.328Z,-10.13
2017-12-03T06:16:46.326Z,-10.19
2017-12-03T06:17:46.326Z,-10.19
2017-12-03T06:18:46.324Z,-10.12
2017-12-03T06:19:46.334Z,-10.18
2017-12-03T06:20:46.324Z,-10.18
2017-12-03T06:21:46.322Z,-10.34
2017-12-03T06:22:46.320Z,-10.41
2017-12-03T06:23:46.321Z,-10.51
2017-12-03T06:24:46.327Z,-10.44
2017-12-03T06:25:46.339Z,-10.58
2017-12-03T06:26:46.320Z,-10.68
2017-12-03T06:27:46.318Z,-10.71
2017-12-03T06:28:46.327Z,-10.76
2017-12-03T06:29:46.314Z,-10.75
2017-12-03T06:30:46.313Z,-10.81
2017-12-03T06:31:46.315Z,-10.79
2017-12-03T06:32:46.310Z,-10.73
2017-12-03T06:33:46.309Z,-10.73
2017-12-03T06:34:46.306Z,-10.73
2017-12-03T06:35:46.312Z,-10.60
2017-12-03T06:36:46.302Z,-10.62
2017-12-03T06:37:46.307Z,-10.57
2017-12-03T06:38:46.300Z,-10.58
2017-12-03T06:39:46.299Z,-10.71
2017-12-03T06:40:46.297Z,-10.57
2017-12-03T06:41:46.297Z,-10.57
2017-12-03T06:42:46.294Z,-10.71
2017-12-03T06:43:46.291Z,-10.65
2017-12-03T06:44:46.291Z,-10.65
2017-12-03T06:45:46.288Z,-10.61
2017-12-03T06:46:46.286Z,-10.57
2017-12-03T06:47:46.286Z,-10.60
2017-12-03T06:48:46.283Z,-10.65
2017-12-03T06:49:46.280Z,-10.58
2017-12-03T06:50:46.280Z,-10.58
2017-12-03T06:51:46.284Z,-10.54
2017-12-03T06:52:46.278Z,-10.54
2017-12-03T06:53:46.273Z,-10.54
2017-12-03T06:54:46.270Z,-10.51
2017-12-03T06:55:46.268Z,-10.46
2017-12-03T06:56:46.266Z,-10.54
2017-12-03T06:57:46.268Z,-10.65
2017-12-03T06:58:46.262Z,-10.64
2017-12-03T06:59:46.259Z,-10.64
2017-12-03T07:00:46.259Z,-10.68
2017-12-03T07:01:46.255Z,-10.71
2017-12-03T07:02:46.253Z,-10.65
2017-12-03T07:03:46.252Z,-10.69
2017-12-03T07:04:46.251Z,-10.64
2017-12-03T07:05:46.250Z,-10.61
2017-12-03T07:06:46.245Z,-10.51
2017-12-03T07:07:46.243Z,-10.58
2017-12-03T07:08:46.240Z,-10.47
2017-12-03T07:09:46.239Z,-10.52
2017-12-03T07:10:46.236Z,-10.54
2017-12-03T07:11:46.234Z,-10.47
2017-12-03T07:12:46.235Z,-10.55
2017-12-03T07:13:46.230Z,-10.46
2017-12-03T07:14:46.228Z,-10.47
2017-12-03T07:15:46.226Z,-10.47
2017-12-03T07:16:46.224Z,-10.52
2017-12-03T07:17:46.220Z,-10.58
2017-12-03T07:18:46.219Z,-10.65
2017-12-03T07:19:46.218Z,-10.60
2017-12-03T07:20:46.215Z,-10.60
2017-12-03T07:21:46.213Z,-10.55
2017-12-03T07:22:46.211Z,-10.64
2017-12-03T07:23:46.209Z,-10.60
2017-12-03T07:24:46.207Z,-10.58
2017-12-03T07:25:46.207Z,-10.51
2017-12-03T07:26:46.206Z,-10.47
2017-12-03T07:27:46.201Z,-10.41
2017-12-03T07:28:46.199Z,-10.43
2017-12-03T07:29:46.196Z,-10.50
2017-12-03T07:30:46.194Z,-10.54
2017-12-03T07:31:46.192Z,-10.47
2017-12-03T07:32:46.191Z,-10.50
2017-12-03T07:33:46.194Z,-10.54
2017-12-03T07:34:46.186Z,-10.58
2017-12-03T07:35:46.187Z,-10.41
2017-12-03T07:36:46.182Z,-10.41
2017-12-03T07:37:46.179Z,-10.44
2017-12-03T07:38:46.176Z,-10.40
2017-12-03T07:39:46.177Z,-10.44
2017-12-03T07:40:46.174Z,-10.51
2017-12-03T07:41:46.173Z,-10.43
2017-12-03T07:42:46.169Z,-10.28
2017-12-03T07:43:46.167Z,-10.47
2017-12-03T07:44:46.168Z,-10.37
2017-12-03T07:45:46.166Z,-10.31
2017-12-03T07:46:46.162Z,-10.34
2017-12-03T07:47:46.159Z,-10.22
2017-12-03T07:48:46.158Z,-10.34
2017-12-03T07:49:46.158Z,-10.19
2017-12-03T07:50:46.154Z,-10.19
2017-12-03T07:51:46.154Z,-10.28
2017-12-03T07:52:46.151Z,-10.31
2017-12-03T07:53:46.149Z,-10.21
2017-12-03T07:54:46.148Z,-10.22
2017-12-03T07:55:46.143Z,-10.21
2017-12-03T07:56:46.148Z,-10.18
2017-12-03T07:57:46.142Z,-10.07
2017-12-03T07:58:46.138Z,-10.12
2017-12-03T07:59:46.135Z,-10.16
2017-12-03T08:00:46.136Z,-10.08
2017-12-03T08:01:46.136Z,-10.07
2017-12-03T08:02:46.132Z,-9.98
2017-12-03T08:03:46.130Z,-10.02
2017-12-03T08:04:46.130Z,-10.00
2017-12-03T08:05:46.133Z,-9.90
2017-12-03T08:06:46.124Z,-9.92
2017-12-03T08:07:46.124Z,-9.95
2017-12-03T08:08:46.121Z,-9.84
2017-12-03T08:09:46.120Z,-9.87
2017-12-03T08:10:46.117Z,-9.92
2017-12-03T08:11:46.119Z,-9.86
2017-12-03T08:12:46.115Z,-9.87
2017-12-03T08:13:46.114Z,-9.87
2017-12-03T08:14:46.111Z,-9.86
2017-12-03T08:15:46.110Z,-9.90
2017-12-03T08:16:46.108Z,-9.95
2017-12-03T08:17:46.108Z,-9.83
2017-12-03T08:18:46.106Z,-9.77
2017-12-03T08:19:46.101Z,-9.81
2017-12-03T08:20:46.102Z,-9.83
2017-12-03T08:21:46.100Z,-9.86
2017-12-03T08:22:46.098Z,-9.80
2017-12-03T08:23:46.097Z,-9.74
2017-12-03T08:24:46.095Z,-9.71
2017-12-03T08:25:46.094Z,-9.59
2017-12-03T08:26:46.092Z,-9.44
2017-12-03T08:27:46.091Z,-9.29
2017-12-03T08:28:46.090Z,-9.23
2017-12-03T08:29:46.090Z,-9.22
2017-12-03T08:30:46.088Z,-9.12
2017-12-03T08:31:46.086Z,-8.98
2017-12-03T08:32:46.085Z,-8.87
2017-12-03T08:33:46.082Z,-8.72
2017-12-03T08:34:46.081Z,-8.50
2017-12-03T08:35:46.086Z,-8.42
2017-12-03T08:36:46.080Z,-8.36
2017-12-03T08:37:46.079Z,-8.18
2017-12-03T08:38:46.077Z,-7.96
2017-12-03T08:39:46.076Z,-7.66
2017-12-03T08:40:46.077Z,-7.36
2017-12-03T08:41:46.075Z,-6.83
2017-12-03T08:42:46.075Z,-6.58
2017-12-03T08:43:46.073Z,-6.55
2017-12-03T08:44:46.075Z,-6.82
2017-12-03T08:45:46.072Z,-7.05
2017-12-03T08:46:46.072Z,-7.15
2017-12-03T08:47:46.073Z,-6.98
2017-12-03T08:48:46.072Z,-7.00
2017-12-03T08:49:46.074Z,-6.94
2017-12-03T08:50:46.071Z,-6.74
2017-12-03T08:51:46.070Z,-6.68
2017-12-03T08:52:46.073Z,-6.76
2017-12-03T08:53:46.072Z,-6.73
2017-12-03T08:54:46.068Z,-6.61
2017-12-03T08:55:46.070Z,-6.50
2017-12-03T08:56:46.068Z,-6.65
2017-12-03T08:57:46.067Z,-6.69
2017-12-03T08:58:46.067Z,-6.76
2017-12-03T08:59:46.067Z,-6.54
2017-12-03T09:00:46.065Z,-6.26
2017-12-03T09:01:46.067Z,-5.92
2017-12-03T09:02:46.068Z,-5.50
2017-12-03T09:03:46.065Z,-5.27
2017-12-03T09:04:46.066Z,-5.35
2017-12-03T09:05:46.067Z,-5.17
2017-12-03T09:06:46.066Z,-5.51
2017-12-03T09:07:46.070Z,-5.80
2017-12-03T09:08:46.070Z,-6.29
2017-12-03T09:09:46.068Z,-6.05
2017-12-03T09:10:46.067Z,-5.65
2017-12-03T09:11:46.068Z,-5.46
2017-12-03T09:12:46.067Z,-4.92
2017-12-03T09:13:46.087Z,-4.87
2017-12-03T09:14:46.070Z,-4.79
2017-12-03T09:15:46.070Z,-5.18
2017-12-03T09:16:46.069Z,-4.78
2017-12-03T09:17:46.069Z,-4.28
2017-12-03T09:18:46.068Z,-4.18
2017-12-03T09:19:46.067Z,-4.61
2017-12-03T09:20:46.072Z,-5.14
2017-12-03T09:21:46.072Z,-5.19
2017-12-03T09:22:46.073Z,-5.32
2017-12-03T09:23:46.073Z,-5.47
2017-12-03T09:24:46.073Z,-5.29
2017-12-03T09:25:46.074Z,-5.29
2017-12-03T09:26:46.072Z,-5.69
2017-12-03T09:27:46.077Z,-6.01
2017-12-03T09:28:46.076Z,-6.05
2017-12-03T09:29:46.078Z,-5.92
2017-12-03T09:30:46.078Z,-5.50
2017-12-03T09:31:46.077Z,-5.50
2017-12-03T09:32:46.076Z,-5.51
2017-12-03T09:33:46.081Z,-5.93
2017-12-03T09:34:46.080Z,-6.16
2017-12-03T09:35:46.082Z,-6.71
2017-12-03T09:36:46.082Z,-6.44
2017-12-03T09:37:46.083Z,-6.15
2017-12-03T09:38:46.083Z,-6.03
2017-12-03T09:39:46.084Z,-6.07
2017-12-03T09:40:46.085Z,-6.04
2017-12-03T09:41:46.084Z,-6.18
2017-12-03T09:42:46.084Z,-6.16
2017-12-03T09:43:46.085Z,-6.40
2017-12-03T09:44:46.113Z,-6.69
2017-12-03T09:45:46.087Z,-6.89
2017-12-03T09:46:46.088Z,-7.05
2017-12-03T09:47:46.088Z,-7.02
2017-12-03T09:48:46.090Z,-7.55
2017-12-03T09:49:46.090Z,-7.94
2017-12-03T09:50:46.090Z,-7.80
2017-12-03T09:51:46.091Z,-7.71
2017-12-03T09:52:46.092Z,-7.22
2017-12-03T09:53:46.091Z,-6.91
2017-12-03T09:54:46.091Z,-6.83
2017-12-03T09:55:46.090Z,-6.89
2017-12-03T09:56:46.093Z,-6.92
2017-12-03T09:57:46.096Z,-7.22
2017-12-03T09:58:46.093Z,-7.34
2017-12-03T09:59:46.096Z,-6.95
2017-12-03T10:00:46.093Z,-6.73
2017-12-03T10:01:46.094Z,-6.83
2017-12-03T10:02:46.092Z,-6.97
2017-12-03T10:03:46.094Z,-6.92
2017-12-03T10:04:46.094Z,-6.89
2017-12-03T10:05:46.095Z,-6.28
2017-12-03T10:06:46.096Z,-5.76
2017-12-03T10:07:46.095Z,-6.13
2017-12-03T10:08:46.101Z,-6.49
2017-12-03T10:09:46.097Z,-6.71
2017-12-03T10:10:46.095Z,-6.23
2017-12-03T10:11:46.096Z,-6.29
2017-12-03T10:12:46.095Z,-6.19
2017-12-03T10:13:46.096Z,-6.34
2017-12-03T10:14:46.097Z,-6.52
2017-12-03T10:15:46.098Z,-6.42
2017-12-03T10:16:46.100Z,-6.37
2017-12-03T10:17:46.101Z,-6.40
2017-12-03T10:18:46.102Z,-6.29
2017-12-03T10:19:46.102Z,-6.39
2017-12-03T10:20:46.103Z,-6.65
2017-12-03T10:21:46.105Z,-6.58
2017-12-03T10:22:46.102Z,-6.73
2017-12-03T10:23:46.103Z,-6.62
2017-12-03T10:24:46.106Z,-6.89
2017-12-03T10:25:46.105Z,-7.05
2017-12-03T10:26:46.101Z,-6.97
2017-12-03T10:27:46.103Z,-6.76
2017-12-03T10:28:46.103Z,-6.62
2017-12-03T10:29:46.105Z,-6.73
2017-12-03T10:30:46.105Z,-6.84
2017-12-03T10:31:46.105Z,-6.80
2017-12-03T10:32:46.105Z,-7.00
2017-12-03T10:33:46.107Z,-6.94
2017-12-03T10:34:46.106Z,-6.61
2017-12-03T10:35:46.107Z,-6.28
2017-12-03T10:36:46.106Z,-6.54
2017-12-03T10:37:46.109Z,-6.05
2017-12-03T10:38:46.110Z,-5.50
2017-12-03T10:39:46.109Z,-5.69
2017-12-03T10:40:46.110Z,-5.64
2017-12-03T10:41:46.109Z,-5.66
2017-12-03T10:42:46.111Z,-5.50
2017-12-03T10:43:46.110Z,-5.36
2017-12-03T10:44:46.112Z,-5.07
2017-12-03T10:45:46.114Z,-4.61
2017-12-03T10:46:46.112Z,-4.24
2017-12-03T10:47:46.115Z,-4.01
2017-12-03T10:48:46.115Z,-4.04
2017-12-03T10:49:46.117Z,-3.91
2017-12-03T10:50:46.118Z,-4.24
2017-12-03T10:51:46.120Z,-4.65
2017-12-03T10:52:46.122Z,-4.89
2017-12-03T10:53:46.122Z,-4.54
2017-12-03T10:54:46.121Z,-3.85
2017-12-03T10:55:46.124Z,-3.59
2017-12-03T10:56:46.127Z,-3.46
2017-12-03T10:57:46.127Z,-3.59
2017-12-03T10:58:46.128Z,-3.72
2017-12-03T10:59:46.132Z,-3.54
2017-12-03T11:00:46.131Z,-3.31
2017-12-03T11:01:46.134Z,-2.61
2017-12-03T11:02:46.135Z,-1.38
2017-12-03T11:03:46.139Z,-0.43
2017-12-03T11:04:46.141Z,-0.22
2017-12-03T11:05:46.195Z,-0.40
2017-12-03T11:06:46.143Z,-0.31
2017-12-03T11:07:46.156Z,-1.25
2017-12-03T11:08:46.150Z,-1.45
2017-12-03T11:09:46.159Z,-1.40
2017-12-03T11:10:46.156Z,-1.19
2017-12-03T11:11:46.195Z,-1.25
2017-12-03T11:12:46.162Z,-1.07
2017-12-03T11:13:46.166Z,-0.80
2017-12-03T11:14:46.168Z,-0.33
2017-12-03T11:15:46.174Z,-0.10
2017-12-03T11:16:46.176Z,0.55
2017-12-03T11:17:46.179Z,-0.49
2017-12-03T11:18:46.182Z,-0.52
2017-12-03T11:19:46.187Z,-0.89
2017-12-03T11:20:46.191Z,-1.05
2017-12-03T11:21:46.195Z,-0.85
2017-12-03T11:22:46.198Z,-0.70
2017-12-03T11:23:46.198Z,-0.29
2017-12-03T11:24:46.205Z,-0.34
2017-12-03T11:25:46.209Z,0.24
2017-12-03T11:26:46.214Z,0.88
2017-12-03T11:27:46.219Z,0.88
2017-12-03T11:28:46.221Z,0.93
2017-12-03T11:29:46.230Z,1.27
2017-12-03T11:30:46.228Z,1.04
2017-12-03T11:31:46.236Z,1.34
2017-12-03T11:32:46.240Z,1.50
2017-12-03T11:33:46.246Z,0.94
2017-12-03T11:34:46.250Z,1.02
2017-12-03T11:35:46.255Z,0.13
2017-12-03T11:36:46.264Z,0.03
2017-12-03T11:37:46.267Z,-0.03
2017-12-03T11:38:46.271Z,0.51
2017-12-03T11:39:46.279Z,0.73
2017-12-03T11:40:46.283Z,1.06
2017-12-03T11:41:46.288Z,1.12
2017-12-03T11:42:46.299Z,1.41
2017-12-03T11:43:46.296Z,1.50
2017-12-03T11:44:46.303Z,1.08
2017-12-03T11:45:46.320Z,0.51
2017-12-03T11:46:46.315Z,0.11
2017-12-03T11:47:46.322Z,0.29
2017-12-03T11:48:46.330Z,0.98
2017-12-03T11:49:46.338Z,0.35
2017-12-03T11:50:46.340Z,-0.95
2017-12-03T11:51:46.347Z,-1.23
2017-12-03T11:52:46.355Z,-1.19
2017-12-03T11:53:46.357Z,-0.94
2017-12-03T11:54:46.364Z,-0.79
2017-12-03T11:55:46.370Z,-0.92
2017-12-03T11:56:46.374Z,-1.28
2017-12-03T11:57:46.382Z,-0.97
2017-12-03T11:58:46.387Z,-0.33
2017-12-03T11:59:46.394Z,-0.05
2017-12-03T12:00:46.402Z,0.29
2017-12-03T12:01:46.408Z,0.31
2017-12-03T12:02:46.409Z,0.20
2017-12-03T12:03:46.417Z,0.24
2017-12-03T12:04:46.426Z,0.24
2017-12-03T12:05:46.430Z,-0.14
2017-12-03T12:06:46.435Z,0.10
2017-12-03T12:07:46.441Z,0.21
2017-12-03T12:08:46.449Z,0.03
2017-12-03T12:09:46.454Z,-0.07
2017-12-03T12:10:46.458Z,0.47
2017-12-03T12:11:46.465Z,1.05
2017-12-03T12:12:46.473Z,0.90
2017-12-03T12:13:46.484Z,-0.11
2017-12-03T12:14:46.486Z,-0.52
2017-12-03T12:15:46.496Z,-0.34
2017-12-03T12:16:46.500Z,-0.03
2017-12-03T12:17:46.506Z,0.11
2017-12-03T12:18:46.513Z,0.78
2017-12-03T12:19:46.522Z,1.42
2017-12-03T12:20:46.531Z,1.44
2017-12-03T12:21:46.534Z,0.96
2017-12-03T12:22:46.538Z,1.29
2017-12-03T12:23:46.547Z,0.86
2017-12-03T12:24:46.554Z,0.69
2017-12-03T12:25:46.566Z,1.04
2017-12-03T12:26:46.568Z,0.53
2017-12-03T12:27:46.579Z,0.80
2017-12-03T12:28:46.585Z,-0.15
2017-12-03T12:29:46.591Z,-0.52
2017-12-03T12:30:46.597Z,-0.44
2017-12-03T12:31:46.607Z,0.11
2017-12-03T12:32:46.614Z,0.65
2017-12-03T12:33:46.621Z,0.49
2017-12-03T12:34:46.630Z,0.69
2017-12-03T12:35:46.636Z,0.46
2017-12-03T12:36:46.643Z,0.57
2017-12-03T12:37:46.651Z,-0.05
2017-12-03T12:38:46.658Z,-0.83
2017-12-03T12:39:46.666Z,-0.57
2017-12-03T12:40:46.673Z,-0.37
2017-12-03T12:41:46.680Z,-0.29
2017-12-03T12:42:46.689Z,-0.31
2017-12-03T12:43:46.696Z,-0.21
2017-12-03T12:44:46.703Z,-0.49
2017-12-03T12:45:46.712Z,-0.57
2017-12-03T12:46:46.721Z,-0.76
2017-12-03T12:47:46.726Z,-0.89
2017-12-03T12:48:46.733Z,-0.89
2017-12-03T12:49:46.741Z,-0.78
2017-12-03T12:50:46.749Z,-0.47